createdAt,value
2023-02-19T13:15:43.181Z,47.90
2023-02-19T13:18:24.171Z,48.21
2023-02-19T13:20:51.837Z,48.46
2023-02-19T13:26:37.583Z,62.26
2023-02-19T13:29:14.192Z,67.80
2023-02-19T13:32:17.616Z,71.69
2023-02-19T13:35:35.378Z,73.89
2023-02-19T13:38:04.066Z,74.38
2023-02-19T13:40:34.168Z,74.79
2023-02-19T13:43:22.305Z,74.64
2023-02-19T13:45:56.561Z,73.41
2023-02-19T13:48:32.216Z,73.98
2023-02-19T13:51:17.800Z,74.96
2023-02-19T13:53:48.085Z,74.87
2023-02-19T13:56:29.736Z,74.79
2023-02-19T13:59:03.328Z,74.75
2023-02-19T14:01:51.512Z,72.49
2023-02-19T14:04:42.629Z,72.54
2023-02-19T14:07:09.146Z,71.96
2023-02-19T14:09:41.304Z,71.31
2023-02-19T14:12:10.716Z,71.35
2023-02-19T14:14:38.047Z,71.38
2023-02-19T14:17:12.345Z,72.28
2023-02-19T14:19:41.523Z,70.68
2023-02-19T14:22:46.125Z,71.67
2023-02-19T14:25:29.192Z,71.06
2023-02-19T14:28:17.265Z,70.45
2023-02-19T14:30:51.150Z,70.12
2023-02-19T14:33:21.257Z,70.70
2023-02-19T14:35:53.918Z,70.79
2023-02-19T14:38:26.034Z,71.02
2023-02-19T14:40:54.257Z,70.77
2023-02-19T14:43:25.150Z,71.53
2023-02-19T14:46:24.469Z,72.06
2023-02-19T14:48:53.657Z,72.30
2023-02-19T14:51:41.949Z,74.46
2023-02-19T14:54:17.743Z,75.14
2023-02-19T14:56:48.287Z,77.02
2023-02-19T14:59:30.374Z,77.39
2023-02-19T15:02:04.582Z,77.09
2023-02-19T15:04:36.613Z,77.27
2023-02-19T15:07:08.599Z,77.17
2023-02-19T15:09:46.532Z,77.93
2023-02-19T15:12:30.524Z,77.17
2023-02-19T15:15:04.883Z,76.65
2023-02-19T15:17:34.177Z,76.51
2023-02-19T15:20:05.433Z,77.01
2023-02-19T15:22:32.646Z,76.62
2023-02-19T15:25:03.670Z,76.30
2023-02-19T15:27:30.547Z,76.33
2023-02-19T15:29:59.684Z,76.72
2023-02-19T15:32:28.243Z,76.24
2023-02-19T15:35:01.067Z,75.88
2023-02-19T15:37:36.675Z,76.14
2023-02-19T15:40:07.705Z,75.30
2023-02-19T15:42:35.944Z,75.66
2023-02-19T15:45:34.647Z,75.22
2023-02-19T15:48:09.384Z,75.33
2023-02-19T15:50:40.391Z,75.13
2023-02-19T15:53:23.536Z,75.57
2023-02-19T15:56:02.441Z,75.61
2023-02-19T15:58:53.036Z,75.28
2023-02-19T16:01:25.365Z,75.78
2023-02-19T16:03:54.082Z,75.52
2023-02-19T16:06:21.551Z,75.07
2023-02-19T16:09:06.290Z,74.59
2023-02-19T16:11:47.623Z,75.10
2023-02-19T16:14:17.643Z,74.76
2023-02-19T16:16:49.089Z,74.98
2023-02-19T16:19:28.607Z,75.36
2023-02-19T16:21:56.200Z,75.78
2023-02-19T16:24:25.797Z,76.90
2023-02-19T16:26:54.409Z,76.90
2023-02-19T16:29:28.292Z,76.70
2023-02-19T16:32:08.507Z,76.40
2023-02-19T16:34:49.254Z,76.45
2023-02-19T16:37:41.611Z,76.87
2023-02-19T16:40:08.953Z,76.98
2023-02-19T16:42:36.825Z,77.80
2023-02-19T16:45:04.860Z,77.23
2023-02-19T16:47:38.098Z,76.96
2023-02-19T16:50:15.454Z,77.11
2023-02-19T16:52:59.879Z,76.66
2023-02-19T16:55:29.036Z,77.19
2023-02-19T16:57:55.586Z,77.09
2023-02-19T17:00:28.254Z,77.23
2023-02-19T17:02:59.624Z,77.10
2023-02-19T17:05:31.160Z,76.78
2023-02-19T17:07:58.179Z,75.91
2023-02-19T17:10:28.578Z,76.14
2023-02-19T17:12:56.000Z,75.61
2023-02-19T17:15:23.797Z,75.58
2023-02-19T17:17:50.464Z,75.35
2023-02-19T17:20:26.660Z,74.97
2023-02-19T17:23:01.532Z,75.35
2023-02-19T17:25:28.020Z,74.82
2023-02-19T17:28:00.548Z,75.08
2023-02-19T17:30:39.920Z,75.17
2023-02-19T17:33:06.865Z,74.63
2023-02-19T18:38:54.065Z,76.06
2023-02-19T18:41:21.940Z,76.29
2023-02-19T18:43:55.519Z,76.32
2023-02-19T18:46:23.567Z,76.64
2023-02-19T18:49:04.513Z,77.14
2023-02-19T18:51:31.014Z,77.07
2023-02-19T18:54:08.528Z,77.34
2023-02-19T18:56:43.439Z,77.57
2023-02-19T18:59:19.483Z,77.72
2023-02-19T19:01:55.786Z,77.69
2023-02-19T19:04:24.079Z,77.86
2023-02-19T19:06:57.493Z,77.64
2023-02-19T19:09:24.296Z,77.97
2023-02-19T19:11:59.832Z,78.06
2023-02-19T19:14:28.641Z,78.07
2023-02-19T19:16:56.876Z,77.98
2023-02-19T19:19:29.492Z,77.74
2023-02-19T19:21:58.636Z,77.27
2023-02-19T19:24:31.562Z,77.58
2023-02-19T19:26:58.064Z,77.93
2023-02-19T19:29:24.844Z,78.27
2023-02-19T19:31:58.632Z,78.38
2023-02-19T19:37:22.872Z,79.17
2023-02-19T19:39:55.445Z,78.89
2023-02-19T19:42:28.466Z,79.15
2023-02-19T19:47:21.667Z,79.56
2023-02-19T19:49:48.152Z,79.50
2023-02-19T19:52:21.692Z,79.94
2023-02-19T19:54:48.185Z,79.78
2023-02-19T19:58:01.677Z,79.87
2023-02-19T20:00:28.096Z,79.76
2023-02-19T20:03:01.757Z,79.65
2023-02-19T20:05:34.888Z,79.60
2023-02-19T20:08:01.385Z,79.35
2023-02-19T20:10:36.800Z,79.50
2023-02-19T20:13:09.890Z,78.99
2023-02-19T20:15:42.658Z,78.62
2023-02-19T20:18:15.662Z,78.61
2023-02-19T20:20:42.146Z,78.34
2023-02-19T20:23:17.638Z,78.56
2023-02-19T20:25:50.638Z,78.47
2023-02-19T20:28:17.073Z,78.42
2023-02-19T20:30:50.774Z,78.68
2023-02-19T20:33:19.378Z,78.34
2023-02-19T20:35:46.959Z,78.42
2023-02-19T20:38:23.656Z,78.32
2023-02-19T20:40:56.631Z,78.43
2023-02-19T20:43:29.637Z,78.53
2023-02-19T20:46:02.628Z,78.75
2023-02-19T20:48:29.175Z,78.73
2023-02-19T20:51:06.628Z,79.02
2023-02-19T20:53:41.687Z,78.61
2023-02-19T20:56:08.570Z,78.99
2023-02-19T20:58:35.007Z,78.93
2023-02-19T21:01:07.612Z,78.90
2023-02-19T21:03:40.628Z,78.99
2023-02-19T21:06:13.873Z,78.84
2023-02-19T21:08:46.590Z,77.94
2023-02-19T21:11:26.662Z,77.04
2023-02-19T21:14:00.599Z,76.21
2023-02-19T21:16:29.353Z,76.38
2023-02-19T21:19:03.623Z,76.22
2023-02-19T21:21:31.434Z,74.96
2023-02-19T21:24:05.609Z,74.60
2023-02-19T21:26:37.004Z,73.82
2023-02-19T21:29:11.875Z,73.57
2023-02-19T21:31:47.745Z,74.00
2023-02-19T21:34:24.600Z,72.87
2023-02-19T21:36:51.378Z,73.32
2023-02-19T21:39:26.641Z,73.76
2023-02-19T21:41:59.616Z,73.50
2023-02-19T21:44:26.135Z,73.19
2023-02-19T21:47:00.587Z,73.53
2023-02-19T21:49:33.608Z,73.40
2023-02-19T21:52:00.036Z,72.49
2023-02-19T21:54:32.573Z,72.27
2023-02-19T21:57:02.084Z,72.27
2023-02-19T21:59:34.587Z,72.71
2023-02-19T22:02:07.599Z,72.84
2023-02-19T22:04:36.334Z,72.23
2023-02-19T22:07:09.594Z,72.61
2023-02-19T22:09:42.577Z,72.28
2023-02-19T22:12:16.602Z,72.44
2023-02-19T22:14:43.172Z,72.67
2023-02-19T22:17:16.570Z,71.91
2023-02-19T22:19:43.119Z,71.97
2023-02-19T22:22:16.571Z,72.53
2023-02-19T22:24:43.078Z,72.38
2023-02-19T22:27:16.898Z,71.87
2023-02-19T22:29:43.323Z,71.95
2023-02-19T22:32:16.655Z,72.14
2023-02-19T22:34:49.584Z,71.71
2023-02-19T22:37:22.559Z,71.81
2023-02-19T22:39:48.987Z,71.42
2023-02-19T22:42:28.563Z,72.25
2023-02-19T22:45:01.560Z,71.80
2023-02-19T22:47:34.563Z,71.83
2023-02-19T22:50:07.683Z,71.80
2023-02-19T22:52:34.117Z,71.54
2023-02-19T22:55:07.565Z,71.48
2023-02-19T22:57:42.554Z,71.80
2023-02-19T23:00:20.880Z,71.88
2023-02-19T23:02:54.552Z,72.01
2023-02-19T23:05:24.844Z,71.76
2023-02-19T23:07:57.828Z,72.53
2023-02-19T23:10:24.286Z,72.26
2023-02-19T23:12:57.632Z,71.99
2023-02-19T23:15:24.037Z,72.60
2023-02-19T23:17:56.533Z,72.86
2023-02-19T23:20:23.147Z,73.18
2023-02-19T23:22:56.807Z,73.48
2023-02-19T23:25:23.272Z,72.11
2023-02-19T23:27:56.552Z,73.72
2023-02-19T23:30:29.718Z,73.90
2023-02-19T23:33:02.552Z,74.32
2023-02-19T23:35:35.539Z,74.32
2023-02-19T23:38:08.583Z,74.54
2023-02-19T23:40:41.552Z,74.74
2023-02-19T23:43:14.524Z,74.58
2023-02-19T23:45:47.583Z,75.14
2023-02-19T23:48:14.244Z,75.21
2023-02-19T23:50:47.537Z,75.60
2023-02-19T23:53:14.068Z,75.51
2023-02-19T23:55:48.526Z,75.92
2023-02-19T23:58:15.241Z,76.23
